sensor_id;sensor_type;location;lat;lon;timestamp;pressure;altitude;pressure_sealevel;temperature;humidity
10921;BME280;5513;50.580;8.818;2023-04-01T00:01:21;97268.72;;;9.80;100.00
10921;BME280;5513;50.580;8.818;2023-04-01T00:03:52;97260.50;;;9.83;100.00
10921;BME280;5513;50.580;8.818;2023-04-01T00:06:22;97260.50;;;9.73;100.00
10921;BME280;5513;50.580;8.818;2023-04-01T00:08:52;97271.06;;;9.83;100.00
10921;BME280;5513;50.580;8.818;2023-04-01T00:11:20;97277.91;;;9.76;100.00
10921;BME280;5513;50.580;8.818;2023-04-01T00:13:50;97282.09;;;9.79;100.00
10921;BME280;5513;50.580;8.818;2023-04-01T00:16:19;97278.31;;;9.81;100.00
10921;BME280;5513;50.580;8.818;2023-04-01T00:18:49;97276.50;;;9.72;100.00
10921;BME280;5513;50.580;8.818;2023-04-01T00:21:21;97274.44;;;9.75;100.00
10921;BME280;5513;50.580;8.818;2023-04-01T00:23:52;97270.25;;;9.73;100.00
10921;BME280;5513;50.580;8.818;2023-04-01T00:26:21;97275.28;;;9.76;100.00
10921;BME280;5513;50.580;8.818;2023-04-01T00:28:49;97271.38;;;9.80;100.00
10921;BME280;5513;50.580;8.818;2023-04-01T00:31:18;97266.91;;;9.71;100.00
10921;BME280;5513;50.580;8.818;2023-04-01T00:33:47;97275.53;;;9.73;100.00
10921;BME280;5513;50.580;8.818;2023-04-01T00:36:18;97277.91;;;9.76;100.00
10921;BME280;5513;50.580;8.818;2023-04-01T00:38:47;97277.19;;;9.74;100.00
10921;BME280;5513;50.580;8.818;2023-04-01T00:41:20;97272.06;;;9.72;100.00
10921;BME280;5513;50.580;8.818;2023-04-01T00:43:51;97280.41;;;9.78;100.00
10921;BME280;5513;50.580;8.818;2023-04-01T00:46:20;97278.91;;;9.65;100.00
10921;BME280;5513;50.580;8.818;2023-04-01T00:48:50;97277.34;;;9.63;100.00
10921;BME280;5513;50.580;8.818;2023-04-01T00:51:21;97275.13;;;9.68;100.00
10921;BME280;5513;50.580;8.818;2023-04-01T00:53:53;97283.91;;;9.78;100.00
10921;BME280;5513;50.580;8.818;2023-04-01T00:56:25;97285.41;;;9.71;100.00
10921;BME280;5513;50.580;8.818;2023-04-01T00:59:00;97285.41;;;9.71;100.00
10921;BME280;5513;50.580;8.818;2023-04-01T01:01:29;97270.00;;;9.76;100.00
10921;BME280;5513;50.580;8.818;2023-04-01T01:03:58;97276.50;;;9.72;100.00
10921;BME280;5513;50.580;8.818;2023-04-01T01:06:38;97274.69;;;9.72;100.00
10921;BME280;5513;50.580;8.818;2023-04-01T01:09:24;97277.78;;;9.78;100.00
10921;BME280;5513;50.580;8.818;2023-04-01T01:12:01;97267.75;;;9.71;100.00
10921;BME280;5513;50.580;8.818;2023-04-01T01:14:45;97267.75;;;9.71;100.00
10921;BME280;5513;50.580;8.818;2023-04-01T01:17:26;97269.84;;;9.68;100.00
10921;BME280;5513;50.580;8.818;2023-04-01T01:23:36;97275.28;;;9.57;100.00
10921;BME280;5513;50.580;8.818;2023-04-01T01:26:39;97269.00;;;9.67;100.00
10921;BME280;5513;50.580;8.818;2023-04-01T01:32:49;97270.69;;;9.59;100.00
10921;BME280;5513;50.580;8.818;2023-04-01T01:35:30;97263.97;;;9.64;100.00
10921;BME280;5513;50.580;8.818;2023-04-01T01:38:02;97261.78;;;9.60;100.00
10921;BME280;5513;50.580;8.818;2023-04-01T01:40:34;97263.97;;;9.55;100.00
10921;BME280;5513;50.580;8.818;2023-04-01T01:43:05;97257.19;;;9.52;100.00
10921;BME280;5513;50.580;8.818;2023-04-01T01:45:37;97258.56;;;9.46;100.00
10921;BME280;5513;50.580;8.818;2023-04-01T01:48:09;97258.00;;;9.53;100.00
10921;BME280;5513;50.580;8.818;2023-04-01T01:50:42;97266.50;;;9.56;100.00
10921;BME280;5513;50.580;8.818;2023-04-01T01:53:13;97256.78;;;9.57;100.00
10921;BME280;5513;50.580;8.818;2023-04-01T01:55:43;97252.88;;;9.61;100.00
10921;BME280;5513;50.580;8.818;2023-04-01T01:58:14;97264.13;;;9.63;100.00
10921;BME280;5513;50.580;8.818;2023-04-01T02:00:48;97257.59;;;9.57;100.00
10921;BME280;5513;50.580;8.818;2023-04-01T02:03:20;97263.97;;;9.64;100.00
10921;BME280;5513;50.580;8.818;2023-04-01T02:05:52;97250.66;;;9.56;100.00
10921;BME280;5513;50.580;8.818;2023-04-01T02:08:25;97258.00;;;9.53;100.00
10921;BME280;5513;50.580;8.818;2023-04-01T02:10:57;97248.13;;;9.55;100.00
10921;BME280;5513;50.580;8.818;2023-04-01T02:13:31;97262.06;;;9.57;100.00
10921;BME280;5513;50.580;8.818;2023-04-01T02:16:08;97259.13;;;9.60;100.00
10921;BME280;5513;50.580;8.818;2023-04-01T02:18:41;97264.28;;;9.52;100.00
10921;BME280;5513;50.580;8.818;2023-04-01T02:21:15;97268.72;;;9.51;100.00
10921;BME280;5513;50.580;8.818;2023-04-01T02:23:45;97262.59;;;9.51;100.00
10921;BME280;5513;50.580;8.818;2023-04-01T02:26:16;97266.06;;;9.51;100.00
10921;BME280;5513;50.580;8.818;2023-04-01T02:28:45;97264.28;;;9.52;100.00
10921;BME280;5513;50.580;8.818;2023-04-01T02:31:14;97257.47;;;9.59;100.00
10921;BME280;5513;50.580;8.818;2023-04-01T02:33:44;97267.44;;;9.45;100.00
10921;BME280;5513;50.580;8.818;2023-04-01T02:36:15;97272.03;;;9.43;100.00
10921;BME280;5513;50.580;8.818;2023-04-01T02:38:45;97263.72;;;9.48;100.00
10921;BME280;5513;50.580;8.818;2023-04-01T02:41:14;97263.16;;;9.44;100.00
10921;BME280;5513;50.580;8.818;2023-04-01T02:43:43;97258.69;;;9.45;100.00
10921;BME280;5513;50.580;8.818;2023-04-01T02:46:11;97267.59;;;9.44;100.00
10921;BME280;5513;50.580;8.818;2023-04-01T02:48:39;97259.97;;;9.51;100.00
10921;BME280;5513;50.580;8.818;2023-04-01T02:51:08;97252.72;;;9.53;100.00
10921;BME280;5513;50.580;8.818;2023-04-01T02:53:38;97258.28;;;9.50;100.00
10921;BME280;5513;50.580;8.818;2023-04-01T02:56:06;97261.47;;;9.43;100.00
10921;BME280;5513;50.580;8.818;2023-04-01T02:58:35;97254.00;;;9.49;100.00
10921;BME280;5513;50.580;8.818;2023-04-01T03:01:03;97261.75;;;9.40;100.00
10921;BME280;5513;50.580;8.818;2023-04-01T03:03:31;97261.91;;;9.39;100.00
10921;BME280;5513;50.580;8.818;2023-04-01T03:06:05;97256.63;;;9.39;100.00
10921;BME280;5513;50.580;8.818;2023-04-01T03:08:34;97261.34;;;9.45;100.00
10921;BME280;5513;50.580;8.818;2023-04-01T03:11:06;97254.38;;;9.44;100.00
10921;BME280;5513;50.580;8.818;2023-04-01T03:13:35;97260.38;;;9.36;100.00
10921;BME280;5513;50.580;8.818;2023-04-01T03:16:03;97261.06;;;9.29;100.00
10921;BME280;5513;50.580;8.818;2023-04-01T03:18:32;97263.28;;;9.33;100.00
10921;BME280;5513;50.580;8.818;2023-04-01T03:21:12;97266.06;;;9.32;100.00
10921;BME280;5513;50.580;8.818;2023-04-01T03:23:41;97270.22;;;9.25;100.00
10921;BME280;5513;50.580;8.818;2023-04-01T03:26:15;97256.44;;;9.21;100.00
10921;BME280;5513;50.580;8.818;2023-04-01T03:28:44;97269.13;;;9.27;100.00
10921;BME280;5513;50.580;8.818;2023-04-01T03:31:12;97265.63;;;9.17;100.00
10921;BME280;5513;50.580;8.818;2023-04-01T03:33:41;97259.25;;;9.20;100.00
10921;BME280;5513;50.580;8.818;2023-04-01T03:36:10;97265.75;;;9.15;100.00
10921;BME280;5513;50.580;8.818;2023-04-01T03:38:41;97267.31;;;9.18;100.00
10921;BME280;5513;50.580;8.818;2023-04-01T03:41:13;97268.97;;;9.19;100.00
10921;BME280;5513;50.580;8.818;2023-04-01T03:43:43;97273.56;;;9.17;100.00
10921;BME280;5513;50.580;8.818;2023-04-01T03:46:16;97271.03;;;9.15;100.00
10921;BME280;5513;50.580;8.818;2023-04-01T03:48:45;97267.16;;;9.20;100.00
10921;BME280;5513;50.580;8.818;2023-04-01T03:51:16;97266.19;;;9.21;100.00
10921;BME280;5513;50.580;8.818;2023-04-01T03:53:44;97265.75;;;9.15;100.00
10921;BME280;5513;50.580;8.818;2023-04-01T03:56:14;97264.50;;;9.10;100.00
10921;BME280;5513;50.580;8.818;2023-04-01T03:58:42;97262.28;;;9.15;100.00
10921;BME280;5513;50.580;8.818;2023-04-01T04:01:14;97264.19;;;9.03;100.00
10921;BME280;5513;50.580;8.818;2023-04-01T04:03:44;97268.34;;;9.06;100.00
10921;BME280;5513;50.580;8.818;2023-04-01T04:06:13;97262.53;;;9.02;100.00
10921;BME280;5513;50.580;8.818;2023-04-01T04:08:42;97266.84;;;9.03;100.00
10921;BME280;5513;50.580;8.818;2023-04-01T04:11:11;97266.56;;;9.06;100.00
10921;BME280;5513;50.580;8.818;2023-04-01T04:13:41;97267.28;;;9.08;100.00
10921;BME280;5513;50.580;8.818;2023-04-01T04:16:11;97263.09;;;9.06;100.00
10921;BME280;5513;50.580;8.818;2023-04-01T04:18:39;97271.31;;;9.12;100.00
10921;BME280;5513;50.580;8.818;2023-04-01T04:21:12;97270.06;;;9.16;100.00
10921;BME280;5513;50.580;8.818;2023-04-01T04:23:41;97264.22;;;9.13;100.00
10921;BME280;5513;50.580;8.818;2023-04-01T04:26:11;97259.34;;;9.08;100.00
10921;BME280;5513;50.580;8.818;2023-04-01T04:28:41;97257.41;;;9.10;100.00
10921;BME280;5513;50.580;8.818;2023-04-01T04:31:10;97270.63;;;9.10;100.00
10921;BME280;5513;50.580;8.818;2023-04-01T04:33:39;97266.47;;;9.17;100.00
10921;BME280;5513;50.580;8.818;2023-04-01T04:36:08;97263.25;;;9.14;100.00
10921;BME280;5513;50.580;8.818;2023-04-01T04:38:38;97263.66;;;9.00;100.00
10921;BME280;5513;50.580;8.818;2023-04-01T04:41:09;97268.25;;;9.07;100.00
10921;BME280;5513;50.580;8.818;2023-04-01T04:43:38;97266.97;;;9.02;100.00
10921;BME280;5513;50.580;8.818;2023-04-01T04:46:09;97273.91;;;9.03;100.00
10921;BME280;5513;50.580;8.818;2023-04-01T04:48:38;97275.69;;;8.93;100.00
10921;BME280;5513;50.580;8.818;2023-04-01T04:51:06;97269.63;;;9.02;100.00
10921;BME280;5513;50.580;8.818;2023-04-01T04:53:35;97273.09;;;9.02;100.00
10921;BME280;5513;50.580;8.818;2023-04-01T04:56:03;97276.56;;;9.03;100.00
10921;BME280;5513;50.580;8.818;2023-04-01T04:58:32;97282.09;;;8.90;100.00
10921;BME280;5513;50.580;8.818;2023-04-01T05:01:06;97274.91;;;9.02;100.00
10921;BME280;5513;50.580;8.818;2023-04-01T05:03:37;97280.88;;;9.04;100.00
10921;BME280;5513;50.580;8.818;2023-04-01T05:06:07;97281.44;;;8.98;100.00
10921;BME280;5513;50.580;8.818;2023-04-01T05:08:36;97276.22;;;8.86;100.00
10921;BME280;5513;50.580;8.818;2023-04-01T05:11:07;97282.94;;;8.91;100.00
10921;BME280;5513;50.580;8.818;2023-04-01T05:13:39;97289.56;;;8.85;100.00
10921;BME280;5513;50.580;8.818;2023-04-01T05:16:08;97293.34;;;8.92;100.00
10921;BME280;5513;50.580;8.818;2023-04-01T05:18:38;97301.69;;;8.97;100.00
10921;BME280;5513;50.580;8.818;2023-04-01T05:21:07;97286.13;;;8.94;100.00
10921;BME280;5513;50.580;8.818;2023-04-01T05:23:36;97299.47;;;8.93;100.00
10921;BME280;5513;50.580;8.818;2023-04-01T05:26:05;97285.94;;;8.86;100.00
10921;BME280;5513;50.580;8.818;2023-04-01T05:28:33;97290.28;;;8.97;100.00
10921;BME280;5513;50.580;8.818;2023-04-01T05:31:03;97290.75;;;9.02;100.00
10921;BME280;5513;50.580;8.818;2023-04-01T05:33:32;97294.66;;;9.07;100.00
10921;BME280;5513;50.580;8.818;2023-04-01T05:36:20;97291.53;;;8.93;100.00
10921;BME280;5513;50.580;8.818;2023-04-01T05:38:48;97299.28;;;8.84;100.00
10921;BME280;5513;50.580;8.818;2023-04-01T05:41:17;97302.50;;;8.88;100.00
10921;BME280;5513;50.580;8.818;2023-04-01T05:43:45;97297.38;;;8.96;100.00
10921;BME280;5513;50.580;8.818;2023-04-01T05:46:14;97290.84;;;8.91;100.00
10921;BME280;5513;50.580;8.818;2023-04-01T05:48:42;97302.09;;;8.93;100.00
10921;BME280;5513;50.580;8.818;2023-04-01T05:51:12;97291.84;;;8.99;100.00
10921;BME280;5513;50.580;8.818;2023-04-01T05:53:43;97301.56;;;8.99;100.00
10921;BME280;5513;50.580;8.818;2023-04-01T05:56:12;97302.78;;;8.95;100.00
10921;BME280;5513;50.580;8.818;2023-04-01T05:58:41;97307.41;;;9.02;100.00
10921;BME280;5513;50.580;8.818;2023-04-01T06:01:12;97306.59;;;9.02;100.00
10921;BME280;5513;50.580;8.818;2023-04-01T06:03:42;97299.22;;;9.05;100.00
10921;BME280;5513;50.580;8.818;2023-04-01T06:06:13;97297.81;;;9.01;100.00
10921;BME280;5513;50.580;8.818;2023-04-01T06:08:44;97305.75;;;9.01;100.00
10921;BME280;5513;50.580;8.818;2023-04-01T06:11:22;97302.81;;;9.04;100.00
10921;BME280;5513;50.580;8.818;2023-04-01T06:14:10;97302.97;;;9.03;100.00
10921;BME280;5513;50.580;8.818;2023-04-01T06:16:55;97306.59;;;9.02;100.00
10921;BME280;5513;50.580;8.818;2023-04-01T06:19:33;97304.63;;;9.04;100.00
10921;BME280;5513;50.580;8.818;2023-04-01T06:22:26;97308.09;;;9.04;100.00
10921;BME280;5513;50.580;8.818;2023-04-01T06:28:01;97304.63;;;9.04;100.00
10921;BME280;5513;50.580;8.818;2023-04-01T06:30:40;97310.91;;;9.12;100.00
10921;BME280;5513;50.580;8.818;2023-04-01T06:33:19;97302.72;;;9.15;100.00
10921;BME280;5513;50.580;8.818;2023-04-01T06:36:08;97304.81;;;9.22;100.00
10921;BME280;5513;50.580;8.818;2023-04-01T06:39:00;97308.84;;;9.26;100.00
10921;BME280;5513;50.580;8.818;2023-04-01T06:42:01;97305.69;;;9.41;100.00
10921;BME280;5513;50.580;8.818;2023-04-01T06:44:41;97302.50;;;9.28;100.00
10921;BME280;5513;50.580;8.818;2023-04-01T06:47:23;97304.03;;;9.40;100.00
10921;BME280;5513;50.580;8.818;2023-04-01T06:49:58;97302.91;;;9.43;100.00
10921;BME280;5513;50.580;8.818;2023-04-01T06:52:36;97297.91;;;9.40;100.00
10921;BME280;5513;50.580;8.818;2023-04-01T06:55:18;97306.25;;;9.45;100.00
10921;BME280;5513;50.580;8.818;2023-04-01T06:57:52;97303.22;;;9.50;100.00
10921;BME280;5513;50.580;8.818;2023-04-01T07:00:27;97299.59;;;9.51;100.00
10921;BME280;5513;50.580;8.818;2023-04-01T07:03:05;97295.84;;;9.63;100.00
10921;BME280;5513;50.580;8.818;2023-04-01T07:05:35;97297.94;;;9.69;100.00
10921;BME280;5513;50.580;8.818;2023-04-01T07:08:06;97300.59;;;9.59;100.00
10921;BME280;5513;50.580;8.818;2023-04-01T07:10:52;97305.03;;;9.49;100.00
10921;BME280;5513;50.580;8.818;2023-04-01T07:13:30;97292.50;;;9.61;100.00
10921;BME280;5513;50.580;8.818;2023-04-01T07:16:11;97299.47;;;9.71;100.00
10921;BME280;5513;50.580;8.818;2023-04-01T07:18:50;97295.84;;;9.63;100.00
10921;BME280;5513;50.580;8.818;2023-04-01T07:21:27;97288.50;;;9.76;100.00
10921;BME280;5513;50.580;8.818;2023-04-01T07:24:03;97296.13;;;9.60;100.00
10921;BME280;5513;50.580;8.818;2023-04-01T07:26:34;97292.13;;;9.65;100.00
10921;BME280;5513;50.580;8.818;2023-04-01T07:29:09;97300.28;;;9.62;100.00
10921;BME280;5513;50.580;8.818;2023-04-01T07:31:49;97300.16;;;9.73;100.00
10921;BME280;5513;50.580;8.818;2023-04-01T07:34:25;97299.91;;;9.77;100.00
10921;BME280;5513;50.580;8.818;2023-04-01T07:36:59;97306.28;;;9.84;100.00
10921;BME280;5513;50.580;8.818;2023-04-01T07:39:38;97307.69;;;9.68;100.00
10921;BME280;5513;50.580;8.818;2023-04-01T07:42:16;97301.41;;;9.69;100.00
10921;BME280;5513;50.580;8.818;2023-04-01T07:44:55;97308.53;;;9.69;100.00
10921;BME280;5513;50.580;8.818;2023-04-01T07:47:45;97318.13;;;9.80;100.00
10921;BME280;5513;50.580;8.818;2023-04-01T07:50:26;97312.28;;;9.86;100.00
10921;BME280;5513;50.580;8.818;2023-04-01T07:53:05;97306.28;;;9.93;100.00
10921;BME280;5513;50.580;8.818;2023-04-01T07:55:40;97309.66;;;9.95;100.00
10921;BME280;5513;50.580;8.818;2023-04-01T07:58:14;97306.84;;;10.07;100.00
10921;BME280;5513;50.580;8.818;2023-04-01T08:00:58;97316.16;;;10.01;100.00
10921;BME280;5513;50.580;8.818;2023-04-01T08:03:38;97320.63;;;10.10;100.00
10921;BME280;5513;50.580;8.818;2023-04-01T08:06:17;97310.31;;;10.07;100.00
10921;BME280;5513;50.580;8.818;2023-04-01T08:08:56;97314.50;;;10.00;100.00
10921;BME280;5513;50.580;8.818;2023-04-01T08:11:37;97304.34;;;10.15;100.00
10921;BME280;5513;50.580;8.818;2023-04-01T08:14:15;97317.69;;;10.13;100.00
10921;BME280;5513;50.580;8.818;2023-04-01T08:16:56;97318.25;;;10.17;100.00
10921;BME280;5513;50.580;8.818;2023-04-01T08:19:34;97318.28;;;10.26;100.00
10921;BME280;5513;50.580;8.818;2023-04-01T08:22:12;97323.13;;;10.02;100.00
10921;BME280;5513;50.580;8.818;2023-04-01T08:24:46;97322.72;;;10.16;100.00
10921;BME280;5513;50.580;8.818;2023-04-01T08:27:21;97331.78;;;10.14;100.00
10921;BME280;5513;50.580;8.818;2023-04-01T08:29:58;97334.97;;;9.98;100.00
10921;BME280;5513;50.580;8.818;2023-04-01T08:32:34;97330.06;;;10.13;100.00
10921;BME280;5513;50.580;8.818;2023-04-01T08:35:09;97338.72;;;10.15;100.00
10921;BME280;5513;50.580;8.818;2023-04-01T08:37:44;97341.09;;;10.18;100.00
10921;BME280;5513;50.580;8.818;2023-04-01T08:40:28;97322.88;;;10.24;100.00
10921;BME280;5513;50.580;8.818;2023-04-01T08:43:09;97320.47;;;10.21;100.00
10921;BME280;5513;50.580;8.818;2023-04-01T08:46:19;97331.47;;;10.07;100.00
10921;BME280;5513;50.580;8.818;2023-04-01T08:49:01;97330.78;;;10.15;100.00
10921;BME280;5513;50.580;8.818;2023-04-01T08:52:01;97326.75;;;10.30;100.00
10921;BME280;5513;50.580;8.818;2023-04-01T08:54:54;97329.25;;;10.12;100.00
10921;BME280;5513;50.580;8.818;2023-04-01T08:57:38;97339.44;;;10.26;100.00
10921;BME280;5513;50.580;8.818;2023-04-01T09:00:15;97339.97;;;10.40;100.00
10921;BME280;5513;50.580;8.818;2023-04-01T09:03:03;97333.56;;;10.42;100.00
10921;BME280;5513;50.580;8.818;2023-04-01T09:06:02;97339.97;;;10.40;100.00
10921;BME280;5513;50.580;8.818;2023-04-01T09:08:51;97338.72;;;10.44;100.00
10921;BME280;5513;50.580;8.818;2023-04-01T09:11:33;97348.50;;;10.34;100.00
10921;BME280;5513;50.580;8.818;2023-04-01T09:14:36;97339.41;;;10.46;100.00
10921;BME280;5513;50.580;8.818;2023-04-01T09:20:30;97344.41;;;10.49;100.00
10921;BME280;5513;50.580;8.818;2023-04-01T09:26:32;97340.94;;;10.48;100.00
10921;BME280;5513;50.580;8.818;2023-04-01T09:29:15;97345.88;;;10.71;100.00
10921;BME280;5513;50.580;8.818;2023-04-01T09:32:18;97343.41;;;10.59;100.00
10921;BME280;5513;50.580;8.818;2023-04-01T09:34:54;97343.84;;;10.55;100.00
10921;BME280;5513;50.580;8.818;2023-04-01T09:37:39;97357.06;;;10.65;100.00
10921;BME280;5513;50.580;8.818;2023-04-01T09:40:18;97347.34;;;10.55;100.00
10921;BME280;5513;50.580;8.818;2023-04-01T09:43:02;97346.03;;;10.69;100.00
10921;BME280;5513;50.580;8.818;2023-04-01T09:45:44;97350.34;;;10.70;100.00
10921;BME280;5513;50.580;8.818;2023-04-01T09:48:25;97346.00;;;10.79;100.00
10921;BME280;5513;50.580;8.818;2023-04-01T09:51:06;97347.31;;;10.65;100.00
10921;BME280;5513;50.580;8.818;2023-04-01T09:53:52;97344.53;;;10.57;100.00
10921;BME280;5513;50.580;8.818;2023-04-01T09:59:49;97344.22;;;10.70;100.00
10921;BME280;5513;50.580;8.818;2023-04-01T10:15:20;97340.72;;;10.69;100.00
10921;BME280;5513;50.580;8.818;2023-04-01T10:21:42;97357.19;;;10.73;100.00
10921;BME280;5513;50.580;8.818;2023-04-01T10:24:41;97348.66;;;10.79;100.00
10921;BME280;5513;50.580;8.818;2023-04-01T10:27:39;97342.25;;;10.81;100.00
10921;BME280;5513;50.580;8.818;2023-04-01T10:34:04;97356.22;;;10.74;100.00
10921;BME280;5513;50.580;8.818;2023-04-01T10:36:51;97359.41;;;10.68;100.00
10921;BME280;5513;50.580;8.818;2023-04-01T10:42:44;97361.41;;;10.56;100.00
10921;BME280;5513;50.580;8.818;2023-04-01T10:48:53;97360.81;;;10.72;100.00
10921;BME280;5513;50.580;8.818;2023-04-01T10:51:47;97365.81;;;10.75;100.00
10921;BME280;5513;50.580;8.818;2023-04-01T10:54:43;97366.91;;;10.82;100.00
10921;BME280;5513;50.580;8.818;2023-04-01T11:00:37;97370.72;;;11.07;100.00
10921;BME280;5513;50.580;8.818;2023-04-01T11:10:24;97371.47;;;10.89;100.00
10921;BME280;5513;50.580;8.818;2023-04-01T11:13:27;97374.00;;;10.91;100.00
10921;BME280;5513;50.580;8.818;2023-04-01T11:22:25;97388.09;;;10.82;100.00
10921;BME280;5513;50.580;8.818;2023-04-01T11:25:20;97389.91;;;10.81;100.00
10921;BME280;5513;50.580;8.818;2023-04-01T11:28:15;97378.47;;;10.91;100.00
10921;BME280;5513;50.580;8.818;2023-04-01T11:31:14;97379.56;;;10.88;100.00
10921;BME280;5513;50.580;8.818;2023-04-01T11:33:51;97381.19;;;10.99;100.00
10921;BME280;5513;50.580;8.818;2023-04-01T11:36:32;97380.09;;;11.01;100.00
10921;BME280;5513;50.580;8.818;2023-04-01T11:39:14;97381.81;;;10.93;100.00
10921;BME280;5513;50.580;8.818;2023-04-01T11:42:01;97394.91;;;10.84;100.00
10921;BME280;5513;50.580;8.818;2023-04-01T11:44:35;97398.41;;;10.85;100.00
10921;BME280;5513;50.580;8.818;2023-04-01T11:47:20;97404.38;;;10.87;100.00
10921;BME280;5513;50.580;8.818;2023-04-01T11:52:55;97408.16;;;10.84;100.00
10921;BME280;5513;50.580;8.818;2023-04-01T11:55:46;97404.97;;;10.81;100.00
10921;BME280;5513;50.580;8.818;2023-04-01T12:01:46;97408.97;;;10.95;100.00
10921;BME280;5513;50.580;8.818;2023-04-01T12:05:03;97416.50;;;10.89;100.00
10921;BME280;5513;50.580;8.818;2023-04-01T12:07:51;97417.31;;;10.90;100.00
10921;BME280;5513;50.580;8.818;2023-04-01T12:10:26;97427.81;;;10.92;100.00
10921;BME280;5513;50.580;8.818;2023-04-01T12:13:04;97434.94;;;10.81;100.00
10921;BME280;5513;50.580;8.818;2023-04-01T12:15:52;97432.97;;;10.93;100.00
10921;BME280;5513;50.580;8.818;2023-04-01T12:18:28;97440.16;;;11.10;100.00
10921;BME280;5513;50.580;8.818;2023-04-01T12:21:07;97437.91;;;11.15;100.00
10921;BME280;5513;50.580;8.818;2023-04-01T12:23:51;97442.41;;;11.05;100.00
10921;BME280;5513;50.580;8.818;2023-04-01T12:29:17;97450.69;;;10.83;100.00
10921;BME280;5513;50.580;8.818;2023-04-01T12:31:55;97450.25;;;10.78;100.00
10921;BME280;5513;50.580;8.818;2023-04-01T12:34:43;97459.41;;;11.12;100.00
10921;BME280;5513;50.580;8.818;2023-04-01T12:37:19;97459.06;;;11.25;100.00
10921;BME280;5513;50.580;8.818;2023-04-01T12:43:29;97462.38;;;11.37;100.00
10921;BME280;5513;50.580;8.818;2023-04-01T12:46:10;97451.59;;;11.11;100.00
10921;BME280;5513;50.580;8.818;2023-04-01T12:49:02;97463.28;;;11.08;100.00
10921;BME280;5513;50.580;8.818;2023-04-01T12:51:44;97454.03;;;11.32;100.00
10921;BME280;5513;50.580;8.818;2023-04-01T12:54:50;97451.59;;;11.48;100.00
10921;BME280;5513;50.580;8.818;2023-04-01T12:57:33;97449.34;;;11.53;100.00
10921;BME280;5513;50.580;8.818;2023-04-01T13:00:25;97447.34;;;11.65;100.00
10921;BME280;5513;50.580;8.818;2023-04-01T13:03:06;97449.16;;;11.64;100.00
10921;BME280;5513;50.580;8.818;2023-04-01T13:06:01;97453.06;;;11.33;100.00
10921;BME280;5513;50.580;8.818;2023-04-01T13:08:42;97441.34;;;11.63;100.00
10921;BME280;5513;50.580;8.818;2023-04-01T13:11:22;97451.66;;;11.66;100.00
10921;BME280;5513;50.580;8.818;2023-04-01T13:17:03;97458.19;;;11.71;100.00
10921;BME280;5513;50.580;8.818;2023-04-01T13:19:43;97469.56;;;11.54;100.00
10921;BME280;5513;50.580;8.818;2023-04-01T13:22:38;97463.91;;;11.49;100.00
10921;BME280;5513;50.580;8.818;2023-04-01T13:25:24;97477.59;;;11.35;100.00
10921;BME280;5513;50.580;8.818;2023-04-01T13:28:00;97482.59;;;11.38;100.00
10921;BME280;5513;50.580;8.818;2023-04-01T13:30:37;97481.06;;;11.45;100.00
10921;BME280;5513;50.580;8.818;2023-04-01T13:33:15;97484.22;;;11.58;100.00
10921;BME280;5513;50.580;8.818;2023-04-01T13:35:51;97481.75;;;11.37;100.00
10921;BME280;5513;50.580;8.818;2023-04-01T13:41:41;97484.19;;;11.68;100.00
10921;BME280;5513;50.580;8.818;2023-04-01T13:44:20;97486.47;;;11.53;100.00
10921;BME280;5513;50.580;8.818;2023-04-01T13:50:26;97482.91;;;11.72;100.00
10921;BME280;5513;50.580;8.818;2023-04-01T13:56:12;97478.81;;;11.87;100.00
10921;BME280;5513;50.580;8.818;2023-04-01T13:59:21;97476.19;;;11.87;100.00
10921;BME280;5513;50.580;8.818;2023-04-01T14:02:05;97474.38;;;12.06;100.00
10921;BME280;5513;50.580;8.818;2023-04-01T14:04:52;97474.53;;;12.04;100.00
10921;BME280;5513;50.580;8.818;2023-04-01T14:07:35;97470.44;;;12.10;100.00
10921;BME280;5513;50.580;8.818;2023-04-01T14:10:18;97469.28;;;11.94;100.00
10921;BME280;5513;50.580;8.818;2023-04-01T14:12:55;97473.31;;;11.98;100.00
10921;BME280;5513;50.580;8.818;2023-04-01T14:15:39;97467.91;;;11.90;100.00
10921;BME280;5513;50.580;8.818;2023-04-01T14:18:20;97477.06;;;11.96;100.00
10921;BME280;5513;50.580;8.818;2023-04-01T14:20:56;97469.72;;;12.17;100.00
10921;BME280;5513;50.580;8.818;2023-04-01T14:23:46;97470.75;;;12.07;100.00
10921;BME280;5513;50.580;8.818;2023-04-01T14:26:34;97472.84;;;12.03;100.00
10921;BME280;5513;50.580;8.818;2023-04-01T14:29:16;97465.00;;;12.11;100.00
10921;BME280;5513;50.580;8.818;2023-04-01T14:32:14;97465.78;;;11.94;100.00
10921;BME280;5513;50.580;8.818;2023-04-01T14:34:55;97458.81;;;11.93;100.00
10921;BME280;5513;50.580;8.818;2023-04-01T14:37:47;97472.47;;;11.98;100.00
10921;BME280;5513;50.580;8.818;2023-04-01T14:40:24;97471.88;;;12.04;100.00
10921;BME280;5513;50.580;8.818;2023-04-01T14:43:01;97478.72;;;12.07;100.00
10921;BME280;5513;50.580;8.818;2023-04-01T14:45:48;97485.09;;;11.86;100.00
10921;BME280;5513;50.580;8.818;2023-04-01T14:48:25;97483.41;;;11.85;100.00
10921;BME280;5513;50.580;8.818;2023-04-01T14:51:03;97498.97;;;11.80;100.00
10921;BME280;5513;50.580;8.818;2023-04-01T14:53:38;97491.56;;;12.01;100.00
10921;BME280;5513;50.580;8.818;2023-04-01T14:56:12;97492.50;;;11.83;100.00
10921;BME280;5513;50.580;8.818;2023-04-01T14:58:43;97492.09;;;11.78;100.00
10921;BME280;5513;50.580;8.818;2023-04-01T15:01:25;97502.03;;;12.03;100.00
10921;BME280;5513;50.580;8.818;2023-04-01T15:04:17;97505.94;;;11.81;100.00
10921;BME280;5513;50.580;8.818;2023-04-01T15:06:58;97515.47;;;12.01;100.00
10921;BME280;5513;50.580;8.818;2023-04-01T15:09:35;97507.13;;;12.14;100.00
10921;BME280;5513;50.580;8.818;2023-04-01T15:12:18;97525.19;;;11.83;100.00
10921;BME280;5513;50.580;8.818;2023-04-01T15:15:15;97515.69;;;11.81;100.00
10921;BME280;5513;50.580;8.818;2023-04-01T15:18:07;97518.91;;;12.12;100.00
10921;BME280;5513;50.580;8.818;2023-04-01T15:20:52;97519.00;;;12.20;100.00
10921;BME280;5513;50.580;8.818;2023-04-01T15:23:31;97518.09;;;12.29;100.00
10921;BME280;5513;50.580;8.818;2023-04-01T15:26:20;97523.66;;;12.36;100.00
10921;BME280;5513;50.580;8.818;2023-04-01T15:29:01;97512.75;;;12.11;100.00
10921;BME280;5513;50.580;8.818;2023-04-01T15:31:40;97529.13;;;12.07;100.00